createdAt,value
2024-04-30T00:02:24.243Z,0.80
2024-04-30T00:04:54.244Z,0.90
2024-04-30T00:07:21.529Z,0.90
2024-04-30T00:09:51.634Z,0.80
2024-04-30T00:12:19.034Z,1.00
2024-04-30T00:14:51.361Z,0.90
2024-04-30T00:17:18.746Z,0.93
2024-04-30T00:19:48.564Z,0.90
2024-04-30T00:22:15.928Z,1.00
2024-04-30T00:24:45.605Z,0.90
2024-04-30T00:27:12.802Z,0.90
2024-04-30T00:29:42.664Z,1.10
2024-04-30T00:32:12.369Z,0.90
2024-04-30T00:34:42.501Z,0.83
2024-04-30T00:37:09.780Z,0.90
2024-04-30T00:39:39.527Z,1.00
2024-04-30T00:42:07.442Z,0.90
2024-04-30T00:44:37.348Z,0.90
2024-04-30T00:47:05.005Z,0.90
2024-04-30T00:49:37.657Z,0.90
2024-04-30T00:52:05.551Z,0.90
2024-04-30T00:54:35.482Z,0.80
2024-04-30T00:57:02.893Z,1.00
2024-04-30T00:59:32.888Z,0.90
2024-04-30T01:02:00.944Z,0.90
2024-04-30T01:04:31.088Z,0.90
2024-04-30T01:07:01.113Z,0.90
2024-04-30T01:09:31.169Z,0.90
2024-04-30T01:11:58.633Z,0.90
2024-04-30T01:14:28.870Z,0.97
2024-04-30T01:16:56.111Z,0.80
2024-04-30T01:19:26.240Z,0.90
2024-04-30T01:21:53.451Z,0.90
2024-04-30T01:24:25.963Z,0.90
2024-04-30T01:26:54.985Z,0.97
2024-04-30T01:29:26.286Z,0.90
2024-04-30T01:31:53.533Z,0.90
2024-04-30T01:34:24.004Z,1.00
2024-04-30T01:36:51.168Z,1.00
2024-04-30T01:39:20.885Z,0.90
2024-04-30T01:41:50.947Z,0.90
2024-04-30T01:44:20.746Z,0.90
2024-04-30T01:46:47.924Z,0.93
2024-04-30T01:49:17.666Z,0.90
2024-04-30T01:51:44.743Z,1.00
2024-04-30T01:54:14.591Z,0.90
2024-04-30T01:56:41.836Z,1.00
2024-04-30T01:59:14.314Z,0.90
2024-04-30T02:01:41.558Z,0.90
2024-04-30T02:04:11.373Z,0.90
2024-04-30T02:06:38.607Z,0.90
2024-04-30T02:09:09.793Z,1.00
2024-04-30T02:11:37.355Z,0.90
2024-04-30T02:14:07.568Z,0.87
2024-04-30T02:16:37.763Z,0.90
2024-04-30T02:19:07.940Z,1.00
2024-04-30T02:21:35.181Z,0.90
2024-04-30T02:24:05.084Z,1.00
2024-04-30T02:26:32.450Z,0.90
2024-04-30T02:29:02.330Z,0.90
2024-04-30T02:31:48.396Z,0.80
2024-04-30T02:34:26.675Z,1.00
2024-04-30T02:36:58.067Z,1.00
2024-04-30T02:39:28.270Z,0.90
2024-04-30T02:41:58.037Z,1.00
2024-04-30T02:44:25.238Z,1.00
2024-04-30T02:46:54.973Z,0.90
2024-04-30T02:49:24.887Z,1.00
2024-04-30T02:51:54.715Z,1.00
2024-04-30T02:54:22.091Z,0.93
2024-04-30T02:56:52.084Z,0.90
2024-04-30T02:59:19.334Z,1.00
2024-04-30T03:01:49.191Z,0.90
2024-04-30T03:04:16.845Z,0.90
2024-04-30T03:06:49.366Z,0.90
2024-04-30T03:09:16.780Z,1.07
2024-04-30T03:11:46.844Z,0.90
2024-04-30T03:14:14.209Z,0.90
2024-04-30T03:16:47.420Z,0.80
2024-04-30T03:19:14.588Z,1.00
2024-04-30T03:21:44.267Z,1.00
2024-04-30T03:24:14.046Z,0.90
2024-04-30T03:26:44.930Z,0.90
2024-04-30T03:29:12.144Z,1.10
2024-04-30T03:31:41.905Z,1.00
2024-04-30T03:34:09.201Z,0.90
2024-04-30T03:36:38.987Z,1.00
2024-04-30T03:39:08.691Z,0.90
2024-04-30T03:41:41.424Z,0.90
2024-04-30T03:44:11.458Z,1.00
2024-04-30T03:46:41.407Z,1.00
2024-04-30T03:49:11.556Z,1.00
2024-04-30T03:51:41.484Z,1.00
2024-04-30T03:54:09.063Z,1.00
2024-04-30T03:56:41.444Z,1.00
2024-04-30T03:59:08.775Z,1.00
2024-04-30T04:01:39.030Z,1.00
2024-04-30T04:04:06.656Z,1.00
2024-04-30T04:06:36.602Z,1.00
2024-04-30T04:09:03.978Z,1.10
2024-04-30T04:11:49.746Z,1.00
2024-04-30T04:14:38.218Z,1.00
2024-04-30T04:17:08.382Z,1.00
2024-04-30T04:19:39.576Z,1.00
2024-04-30T04:22:09.562Z,1.00
2024-04-30T04:24:39.393Z,1.00
2024-04-30T04:27:07.125Z,1.07
2024-04-30T04:29:39.667Z,1.00
2024-04-30T04:32:09.846Z,1.10
2024-04-30T04:34:38.184Z,1.00
2024-04-30T04:37:08.271Z,1.00
2024-04-30T04:39:35.898Z,0.90
2024-04-30T04:42:06.098Z,1.00
2024-04-30T04:44:33.541Z,1.10
2024-04-30T04:47:06.682Z,1.00
2024-04-30T04:49:33.891Z,1.00
2024-04-30T04:52:03.941Z,1.00
2024-04-30T04:54:31.490Z,1.00
2024-04-30T04:57:01.774Z,0.83
2024-04-30T04:59:28.923Z,1.10
2024-04-30T05:01:59.086Z,1.00
2024-04-30T05:04:29.200Z,0.80
2024-04-30T05:07:01.053Z,1.00
2024-04-30T05:09:29.780Z,1.00
2024-04-30T05:11:59.953Z,0.90
2024-04-30T05:14:28.149Z,1.07
2024-04-30T05:16:58.031Z,1.00
2024-04-30T05:19:25.517Z,1.00
2024-04-30T05:21:58.158Z,1.00
2024-04-30T05:24:27.575Z,0.90
2024-04-30T05:26:57.370Z,0.97
2024-04-30T05:29:24.515Z,0.90
2024-04-30T05:31:54.394Z,0.90
2024-04-30T05:34:21.671Z,0.90
2024-04-30T05:36:51.914Z,1.00
2024-04-30T05:39:21.814Z,0.93
2024-04-30T05:41:51.831Z,0.90
2024-04-30T05:44:19.086Z,0.90
2024-04-30T05:46:49.001Z,0.90
2024-04-30T05:49:17.920Z,0.87
2024-04-30T05:51:47.657Z,0.80
2024-04-30T05:54:15.059Z,0.90
2024-04-30T05:56:47.655Z,0.87
2024-04-30T05:59:14.922Z,0.80
2024-04-30T06:01:44.967Z,0.80
2024-04-30T06:04:12.803Z,0.90
2024-04-30T06:06:42.644Z,0.80
2024-04-30T06:09:09.955Z,0.87
2024-04-30T06:11:39.949Z,0.83
2024-04-30T06:14:09.969Z,0.80
2024-04-30T06:16:40.118Z,0.80
2024-04-30T06:19:07.460Z,0.80
2024-04-30T06:21:39.064Z,0.80
2024-04-30T06:24:09.883Z,0.80
2024-04-30T06:26:37.377Z,0.70
2024-04-30T06:29:07.591Z,0.70
2024-04-30T06:31:38.091Z,0.70
2024-04-30T06:34:08.053Z,0.70
2024-04-30T06:36:35.407Z,0.70
2024-04-30T06:39:05.323Z,0.75
2024-04-30T06:41:32.575Z,0.73
2024-04-30T06:44:02.796Z,0.70
2024-04-30T06:49:14.733Z,0.70
2024-04-30T06:51:41.939Z,0.70
2024-04-30T06:54:11.786Z,0.70
2024-04-30T06:56:38.978Z,0.60
2024-04-30T06:59:08.708Z,0.70
2024-04-30T07:01:36.450Z,0.70
2024-04-30T07:04:06.323Z,0.60
2024-04-30T07:06:36.370Z,0.60
2024-04-30T07:09:06.530Z,0.60
2024-04-30T07:11:33.930Z,0.50
2024-04-30T07:14:03.936Z,0.43
2024-04-30T07:16:31.232Z,0.60
2024-04-30T07:19:00.962Z,0.60
2024-04-30T07:21:28.117Z,0.60
2024-04-30T07:24:03.681Z,0.60
2024-04-30T07:26:31.287Z,0.60
2024-04-30T07:29:01.142Z,0.50
2024-04-30T07:31:28.397Z,0.50
2024-04-30T07:33:58.502Z,0.60
2024-04-30T07:36:25.950Z,0.50
2024-04-30T07:38:56.302Z,0.50
2024-04-30T07:41:26.217Z,0.50
2024-04-30T07:43:56.219Z,0.50
2024-04-30T07:46:23.596Z,0.40
2024-04-30T07:48:55.359Z,0.40
2024-04-30T07:51:22.924Z,0.40
2024-04-30T07:53:53.001Z,0.40
2024-04-30T07:56:20.262Z,0.40
2024-04-30T07:58:53.209Z,0.40
2024-04-30T08:01:22.191Z,0.30
2024-04-30T08:03:52.411Z,0.50
2024-04-30T08:06:21.110Z,0.40
2024-04-30T08:08:51.456Z,0.40
2024-04-30T08:11:22.943Z,0.40
2024-04-30T08:13:55.585Z,0.30
2024-04-30T08:16:23.013Z,0.40
2024-04-30T08:18:54.421Z,0.30
2024-04-30T08:21:22.043Z,0.38
2024-04-30T08:23:52.090Z,0.30
2024-04-30T08:26:19.348Z,0.40
2024-04-30T08:28:49.887Z,0.30
2024-04-30T08:31:22.821Z,0.30
2024-04-30T08:33:50.322Z,0.30
2024-04-30T08:36:25.749Z,0.30
2024-04-30T08:38:55.684Z,0.30
2024-04-30T08:41:27.823Z,0.30
2024-04-30T08:43:58.270Z,0.30
2024-04-30T08:46:32.978Z,0.20
2024-04-30T08:49:02.175Z,0.30
2024-04-30T08:51:33.532Z,0.30
2024-04-30T08:54:02.186Z,0.30
2024-04-30T08:56:32.635Z,0.30
2024-04-30T08:59:00.252Z,0.30
2024-04-30T09:01:34.157Z,0.30
2024-04-30T09:04:02.517Z,0.30
2024-04-30T09:06:34.395Z,0.30
2024-04-30T09:09:02.187Z,0.30
2024-04-30T09:11:32.761Z,0.30
2024-04-30T09:14:00.273Z,0.30
2024-04-30T09:16:33.183Z,0.30
2024-04-30T09:19:01.135Z,0.28
2024-04-30T09:21:32.509Z,0.30
2024-04-30T09:24:09.750Z,0.30
2024-04-30T09:26:39.885Z,0.30
2024-04-30T09:29:09.990Z,0.30
2024-04-30T09:31:40.650Z,0.30
2024-04-30T09:34:11.802Z,0.30
2024-04-30T09:36:40.405Z,0.30
2024-04-30T09:39:11.441Z,0.30
2024-04-30T09:41:39.649Z,0.30
2024-04-30T09:44:10.320Z,0.30
2024-04-30T09:46:41.700Z,0.30
2024-04-30T09:49:12.030Z,0.30
2024-04-30T09:51:40.888Z,0.30
2024-04-30T09:54:14.003Z,0.40
2024-04-30T09:56:41.721Z,0.20
2024-04-30T09:59:11.941Z,0.20
2024-04-30T10:01:42.640Z,0.30
2024-04-30T10:04:13.477Z,0.30
2024-04-30T10:06:42.823Z,0.30
2024-04-30T10:09:13.207Z,0.30
2024-04-30T10:11:47.248Z,0.30
2024-04-30T10:14:17.772Z,0.30
2024-04-30T10:17:08.593Z,0.30
2024-04-30T10:19:45.971Z,0.30
2024-04-30T10:22:19.300Z,0.30
2024-04-30T10:24:47.020Z,0.30
2024-04-30T10:27:23.442Z,0.30
2024-04-30T10:29:51.076Z,0.30
2024-04-30T10:32:21.524Z,0.30
2024-04-30T10:34:58.538Z,0.20
2024-04-30T10:37:29.835Z,0.30
2024-04-30T10:40:00.209Z,0.30
2024-04-30T10:42:35.459Z,0.30
2024-04-30T10:45:06.522Z,0.30
2024-04-30T10:47:34.378Z,0.30
2024-04-30T10:50:16.650Z,0.30
2024-04-30T10:52:46.982Z,0.30
2024-04-30T10:55:19.095Z,0.20
2024-04-30T10:57:46.653Z,0.30
2024-04-30T11:00:16.840Z,0.30
2024-04-30T11:02:50.564Z,0.30
2024-04-30T11:05:23.971Z,0.30
2024-04-30T11:07:59.773Z,0.30
2024-04-30T11:10:28.980Z,0.30
2024-04-30T11:13:04.571Z,0.20
2024-04-30T11:15:33.437Z,0.30
2024-04-30T11:18:03.877Z,0.20
2024-04-30T11:20:34.270Z,0.30
2024-04-30T11:23:04.819Z,0.30
2024-04-30T11:25:32.215Z,0.20
2024-04-30T11:28:02.706Z,0.20
2024-04-30T11:30:29.978Z,0.30
2024-04-30T11:33:00.110Z,0.30
2024-04-30T11:35:29.390Z,0.20
2024-04-30T11:38:02.551Z,0.20
2024-04-30T11:40:32.041Z,0.20
2024-04-30T11:43:02.706Z,0.20
2024-04-30T11:45:35.323Z,0.20
2024-04-30T11:48:06.322Z,0.20
2024-04-30T11:50:33.864Z,0.20
2024-04-30T11:53:06.863Z,0.30
2024-04-30T11:55:36.193Z,0.30
2024-04-30T11:58:06.593Z,0.20
2024-04-30T12:00:35.146Z,0.20
2024-04-30T12:03:06.749Z,0.30
2024-04-30T12:05:34.417Z,0.30
2024-04-30T12:08:15.455Z,0.20
2024-04-30T12:10:43.130Z,0.20
2024-04-30T12:13:13.490Z,0.20
2024-04-30T12:15:41.319Z,0.20
2024-04-30T12:18:11.590Z,0.20
2024-04-30T12:20:40.051Z,0.20
2024-04-30T12:23:12.787Z,0.20
2024-04-30T12:25:40.376Z,0.20
2024-04-30T12:28:10.770Z,0.20
2024-04-30T12:30:38.311Z,0.20
2024-04-30T12:33:11.281Z,0.20
2024-04-30T12:35:40.536Z,0.20
2024-04-30T12:38:14.602Z,0.20
2024-04-30T12:40:42.451Z,0.20
2024-04-30T12:43:12.715Z,0.28
2024-04-30T12:45:40.401Z,0.22
2024-04-30T12:48:10.962Z,0.20
2024-04-30T12:50:41.259Z,0.20
2024-04-30T12:53:14.334Z,0.20
2024-04-30T12:55:42.094Z,0.20
2024-04-30T12:58:12.314Z,0.20
2024-04-30T13:00:39.921Z,0.20
2024-04-30T13:03:10.214Z,0.20
2024-04-30T13:05:41.312Z,0.20
2024-04-30T13:08:14.090Z,0.25
2024-04-30T13:10:41.930Z,0.20
2024-04-30T13:13:12.093Z,0.20
2024-04-30T13:15:39.661Z,0.20
2024-04-30T13:18:10.102Z,0.30
2024-04-30T13:20:39.760Z,0.20
2024-04-30T13:23:10.182Z,0.20
2024-04-30T13:25:40.831Z,0.30
2024-04-30T13:28:11.282Z,0.30
2024-04-30T13:30:41.389Z,0.30
2024-04-30T13:33:10.254Z,0.30
2024-04-30T13:35:40.920Z,0.30
2024-04-30T13:38:08.456Z,0.30
2024-04-30T13:40:38.728Z,0.20
2024-04-30T13:43:08.819Z,0.30
2024-04-30T13:45:38.931Z,0.20
2024-04-30T13:48:08.276Z,0.30
2024-04-30T13:50:38.510Z,0.25
2024-04-30T13:53:05.970Z,0.30
2024-04-30T13:55:36.254Z,0.20
2024-04-30T13:58:03.955Z,0.20
2024-04-30T14:00:36.816Z,0.30
2024-04-30T14:03:04.813Z,0.20
2024-04-30T14:05:37.152Z,0.20
2024-04-30T14:08:06.369Z,0.25
2024-04-30T14:10:36.641Z,0.20
2024-04-30T14:13:06.523Z,0.20
2024-04-30T14:15:39.563Z,0.20
2024-04-30T14:18:07.562Z,0.20
2024-04-30T14:20:37.766Z,0.20
2024-04-30T14:23:05.750Z,0.25
2024-04-30T14:25:36.192Z,0.20
2024-04-30T14:28:04.601Z,0.20
2024-04-30T14:30:35.026Z,0.20
2024-04-30T14:33:05.578Z,0.30
2024-04-30T14:35:55.940Z,0.20
2024-04-30T14:38:23.825Z,0.20
2024-04-30T14:40:54.880Z,0.30
2024-04-30T14:43:22.647Z,0.30
2024-04-30T14:45:52.971Z,0.30
2024-04-30T14:48:23.353Z,0.20
2024-04-30T14:50:54.443Z,0.30
2024-04-30T14:53:24.624Z,0.20
2024-04-30T14:55:54.791Z,0.20
2024-04-30T14:58:24.958Z,0.20
2024-04-30T15:00:52.862Z,0.20
2024-04-30T15:03:25.980Z,0.30
2024-04-30T15:05:53.790Z,0.30
2024-04-30T15:08:24.320Z,0.20
2024-04-30T15:10:52.135Z,0.30
2024-04-30T15:13:22.997Z,0.20
2024-04-30T15:15:50.583Z,0.30
2024-04-30T15:18:20.975Z,0.30
2024-04-30T15:20:51.617Z,0.30
2024-04-30T15:23:21.898Z,0.20
2024-04-30T15:25:49.831Z,0.20
2024-04-30T15:28:20.112Z,0.30
2024-04-30T15:30:47.738Z,0.20
2024-04-30T15:33:17.915Z,0.30
2024-04-30T15:35:45.657Z,0.30
2024-04-30T15:38:20.330Z,0.30
2024-04-30T15:40:48.997Z,0.30
2024-04-30T15:43:21.283Z,0.20
2024-04-30T15:45:48.991Z,0.30
2024-04-30T15:48:19.126Z,0.30
2024-04-30T15:50:46.812Z,0.30
2024-04-30T15:53:22.374Z,0.30
2024-04-30T15:56:05.056Z,0.30
2024-04-30T15:58:40.463Z,0.20
2024-04-30T16:01:08.161Z,0.30
2024-04-30T16:03:38.524Z,0.28
2024-04-30T16:06:07.283Z,0.30
2024-04-30T16:08:40.113Z,0.20
2024-04-30T16:11:10.387Z,0.30
2024-04-30T16:13:42.181Z,0.30
2024-04-30T16:16:16.454Z,0.20
2024-04-30T16:18:49.006Z,0.28
2024-04-30T16:21:16.675Z,0.20
2024-04-30T16:23:50.105Z,0.30
2024-04-30T16:26:20.349Z,0.30
2024-04-30T16:28:47.959Z,0.30
2024-04-30T16:31:18.400Z,0.20
2024-04-30T16:33:46.294Z,0.30
2024-04-30T16:36:23.234Z,0.20
2024-04-30T16:38:54.915Z,0.30
2024-04-30T16:41:25.140Z,0.30
2024-04-30T16:43:56.174Z,0.30
2024-04-30T16:46:24.140Z,0.30
2024-04-30T16:48:57.509Z,0.28
2024-04-30T16:51:25.288Z,0.30
2024-04-30T16:53:58.464Z,0.30
2024-04-30T16:56:28.867Z,0.30
2024-04-30T16:58:56.343Z,0.30
2024-04-30T17:01:26.900Z,0.30
2024-04-30T17:03:54.869Z,0.30
2024-04-30T17:06:25.255Z,0.30
2024-04-30T17:08:55.494Z,0.30
2024-04-30T17:11:25.738Z,0.20
2024-04-30T17:13:53.444Z,0.30
2024-04-30T17:16:23.900Z,0.30
2024-04-30T17:18:51.816Z,0.30
2024-04-30T17:21:23.124Z,0.30
2024-04-30T17:23:50.974Z,0.20
2024-04-30T17:26:27.136Z,0.30
2024-04-30T17:28:55.493Z,0.30
2024-04-30T17:31:26.105Z,0.30
2024-04-30T17:33:57.111Z,0.30
2024-04-30T17:36:30.348Z,0.25
2024-04-30T17:38:57.971Z,0.30
2024-04-30T17:41:31.322Z,0.30
2024-04-30T17:43:58.984Z,0.30
2024-04-30T17:46:30.062Z,0.30
2024-04-30T17:48:59.547Z,0.30
2024-04-30T17:51:29.918Z,0.30
2024-04-30T17:53:57.683Z,0.20
2024-04-30T17:56:27.944Z,0.30
2024-04-30T17:58:59.294Z,0.30
2024-04-30T18:01:30.728Z,0.30
2024-04-30T18:03:58.565Z,0.30
2024-04-30T18:06:29.470Z,0.30
2024-04-30T18:08:58.050Z,0.30
2024-04-30T18:11:29.247Z,0.30
2024-04-30T18:14:03.299Z,0.30
2024-04-30T18:16:32.380Z,0.30
2024-04-30T18:19:02.847Z,0.40
2024-04-30T18:21:35.341Z,0.30
2024-04-30T18:24:07.707Z,0.30
2024-04-30T18:26:38.686Z,0.30
2024-04-30T18:29:12.281Z,0.30
2024-04-30T18:31:39.903Z,0.28
2024-04-30T18:34:10.178Z,0.30
2024-04-30T18:36:38.323Z,0.30
2024-04-30T18:39:11.709Z,0.30
2024-04-30T18:41:40.357Z,0.30
2024-04-30T18:44:13.413Z,0.30
2024-04-30T18:46:41.353Z,0.30
2024-04-30T18:49:13.651Z,0.30
2024-04-30T18:51:42.081Z,0.30
2024-04-30T18:54:12.339Z,0.30
2024-04-30T18:56:40.355Z,0.30
2024-04-30T18:59:13.550Z,0.35
2024-04-30T19:01:41.186Z,0.35
2024-04-30T19:04:11.436Z,0.30
2024-04-30T19:06:42.155Z,0.30
2024-04-30T19:09:12.524Z,0.30
2024-04-30T19:11:42.603Z,0.30
2024-04-30T19:14:15.596Z,0.30
2024-04-30T19:16:43.280Z,0.30
2024-04-30T19:19:20.647Z,0.40
2024-04-30T19:21:49.281Z,0.40
2024-04-30T19:24:20.163Z,0.30
2024-04-30T19:26:47.827Z,0.30
2024-04-30T19:29:20.686Z,0.30
2024-04-30T19:31:49.371Z,0.30
2024-04-30T19:34:19.608Z,0.40
2024-04-30T19:36:47.331Z,0.30
2024-04-30T19:39:17.896Z,0.40
2024-04-30T19:41:45.741Z,0.40
2024-04-30T19:44:15.939Z,0.40
2024-04-30T19:46:46.234Z,0.40
2024-04-30T19:49:16.533Z,0.35
2024-04-30T19:51:44.300Z,0.30
2024-04-30T19:54:14.854Z,0.30
2024-04-30T19:56:42.587Z,0.30
2024-04-30T19:59:13.052Z,0.40
2024-04-30T20:01:40.812Z,0.40
2024-04-30T20:04:15.202Z,0.40
2024-04-30T20:06:43.386Z,0.30
2024-04-30T20:09:14.466Z,0.40
2024-04-30T20:11:42.124Z,0.40
2024-04-30T20:14:14.650Z,0.40
2024-04-30T20:16:43.681Z,0.30
2024-04-30T20:19:16.787Z,0.30
2024-04-30T20:21:44.451Z,0.40
2024-04-30T20:24:14.579Z,0.30
2024-04-30T20:26:42.239Z,0.38
2024-04-30T20:29:12.751Z,0.40
2024-04-30T20:31:42.336Z,0.40
2024-04-30T20:34:12.589Z,0.40
2024-04-30T20:36:43.138Z,0.40
2024-04-30T20:39:13.692Z,0.40
2024-04-30T20:41:41.421Z,0.40
2024-04-30T20:44:11.826Z,0.40
2024-04-30T20:46:42.556Z,0.40
2024-04-30T20:49:13.190Z,0.40
2024-04-30T20:51:46.834Z,0.40
2024-04-30T20:54:17.192Z,0.30
2024-04-30T20:56:44.780Z,0.40
2024-04-30T20:59:15.206Z,0.47
2024-04-30T21:01:43.468Z,0.40
2024-04-30T21:04:13.850Z,0.50
2024-04-30T21:06:41.613Z,0.40
2024-04-30T21:09:15.768Z,0.40
2024-04-30T21:11:45.890Z,0.40
2024-04-30T21:14:13.468Z,0.40
2024-04-30T21:16:43.687Z,0.50
2024-04-30T21:19:14.195Z,0.50
2024-04-30T21:21:42.282Z,0.40
2024-04-30T21:24:16.429Z,0.50
2024-04-30T21:26:44.071Z,0.40
2024-04-30T21:29:14.511Z,0.50
2024-04-30T21:31:42.219Z,0.40
2024-04-30T21:34:12.743Z,0.40
2024-04-30T21:36:45.371Z,0.50
2024-04-30T21:39:19.022Z,0.50
2024-04-30T21:41:46.634Z,0.50
2024-04-30T21:44:17.182Z,0.50
2024-04-30T21:46:44.913Z,0.47
2024-04-30T21:49:15.929Z,0.45
2024-04-30T21:51:46.279Z,0.40
2024-04-30T21:54:19.937Z,0.40
2024-04-30T21:56:47.784Z,0.52
2024-04-30T21:59:17.958Z,0.50
2024-04-30T22:01:48.704Z,0.50
2024-04-30T22:04:19.016Z,0.40
2024-04-30T22:06:47.204Z,0.40
2024-04-30T22:09:20.248Z,0.50
2024-04-30T22:11:50.697Z,0.50
2024-04-30T22:14:18.627Z,0.50
2024-04-30T22:16:48.858Z,0.50
2024-04-30T22:19:16.665Z,0.50
2024-04-30T22:21:47.540Z,0.50
2024-04-30T22:24:17.925Z,0.50
2024-04-30T22:26:48.078Z,0.50
2024-04-30T22:29:15.910Z,0.40
2024-04-30T22:31:46.047Z,0.50
2024-04-30T22:34:13.722Z,0.50
2024-04-30T22:36:44.125Z,0.50
2024-04-30T22:39:12.467Z,0.52
2024-04-30T22:41:45.670Z,0.50
2024-04-30T22:44:13.170Z,0.60
2024-04-30T22:46:43.335Z,0.50
2024-04-30T22:49:10.858Z,0.50
2024-04-30T22:51:41.254Z,0.50
2024-04-30T22:54:08.909Z,0.50
2024-04-30T22:56:39.207Z,0.50
2024-04-30T22:59:09.346Z,0.50
2024-04-30T23:01:39.736Z,0.50
2024-04-30T23:04:07.798Z,0.50
2024-04-30T23:06:38.069Z,0.50
2024-04-30T23:09:05.711Z,0.50
2024-04-30T23:11:36.371Z,0.52
2024-04-30T23:14:04.606Z,0.50
2024-04-30T23:16:42.277Z,0.50
2024-04-30T23:19:10.516Z,0.60
2024-04-30T23:21:41.724Z,0.60
2024-04-30T23:24:09.300Z,0.50
2024-04-30T23:26:39.608Z,0.50
2024-04-30T23:29:07.166Z,0.50
2024-04-30T23:31:41.990Z,0.50
2024-04-30T23:34:09.573Z,0.60
2024-04-30T23:36:42.810Z,0.55
2024-04-30T23:39:10.538Z,0.57
2024-04-30T23:41:41.764Z,0.50
2024-04-30T23:44:09.584Z,0.60
2024-04-30T23:46:42.454Z,0.50
2024-04-30T23:49:11.958Z,0.50
2024-04-30T23:51:42.071Z,0.50
2024-04-30T23:54:09.591Z,0.60
2024-04-30T23:56:40.042Z,0.50
2024-04-30T23:59:07.591Z,0.50
